Latest Coastal Weather Observations for Low Rocky Point

IDT60701

Issued at 12:03 am EST Friday 30 June 2017 (issued every 10 minutes, with the page automatically refreshed every 10 minutes)

About coastal observations | Map of coastal stations | Coastal observations for TAS | Marine services | Other Formats
Station Details ID: 097080 Name: LOW ROCKY POINT Lat: -42.98 Lon: 145.50 Height: 34.0 m
Data from the previous 72 hours. | See also: Recent months at Low Rocky Point
Date/Time
EST
Temp
°C
Wind Pressure Rain since
9am
mm
Weather Cloud Vis
km
Sea
Height
m
Swell
Dir  Spd
kts
Gust
kts
hPa Trend Height
m
Period
s
Dir
30/12:00am 7.0 SSW 17 27 1022.3 - 8.6 - - - - - - -
 
Date/Time
EST
Temp
°C
Wind Pressure Rain since
9am
mm
Weather Cloud Vis
km
Sea
Height
m
Swell
Dir  Spd
kts
Gust
kts
hPa Trend Height
m
Period
s
Dir
29/11:30pm 6.1 SSW 22 36 1022.3 - 8.6 - - - - - - -
29/11:20pm 6.8 SSW 17 27 1022.1 - 8.6 - - - - - - -
29/11:00pm 6.3 SW 20 28 1022.1 - 8.6 Recent precip. - - - - - -
29/10:47pm 6.4 SSW 19 29 1021.8 - 8.6 - - - - - - -
29/10:30pm 6.1 SW 18 29 1021.5 - 8.4 - - - - - - -
29/10:02pm 5.4 SW 18 28 1021.6 - 8.4 - - - - - - -
29/10:00pm 5.4 SW 19 28 1021.7 - 8.4 Rain - - - - - -
29/09:30pm 7.4 SW 21 31 1021.0 - 6.6 - - - - - - -
29/09:00pm 6.4 SW 18 26 1020.7 - 6.6 - - - - - - -
29/08:30pm 6.2 SSW 25 37 1020.3 - 6.6 - - - - - - -
29/08:00pm 6.8 SW 23 34 1019.7 - 6.6 - - - - - - -
29/07:58pm 6.9 SW 22 34 1019.5 - 6.6 - - - - - - -
29/07:52pm 7.3 SW 20 30 1019.4 - 6.6 - - - - - - -
29/07:31pm 6.3 SSW 21 31 1019.4 - 6.6 - - - - - - -
29/07:30pm 6.3 SSW 22 31 1019.4 - 6.6 - - - - - - -
29/07:19pm 6.9 SSW 22 34 1019.1 - 6.6 - - - - - - -
29/07:05pm 7.4 SW 24 34 1018.6 - 6.6 - - - - - - -
29/07:00pm 7.5 SW 24 34 1018.5 - 6.6 - - - - - - -
29/06:37pm 6.9 SW 21 31 1018.0 - 6.6 - - - - - - -
29/06:30pm 7.1 SW 22 30 1018.0 - 6.6 - - - - - - -
29/06:08pm 6.7 WSW 17 29 1017.5 - 6.6 - - - - - - -
29/06:00pm 6.1 SW 21 32 1017.6 - 6.6 Rain - - - - - -
29/05:49pm 6.2 WSW 20 31 1017.5 - 6.4 - - - - - - -
29/05:48pm 6.6 WSW 20 31 1017.5 - 6.2 - - - - - - -
29/05:30pm 6.7 WSW 19 27 1016.9 - 6.0 - - - - - - -
29/05:04pm 6.7 SW 19 29 1016.6 - 5.6 - - - - - - -
29/05:00pm 6.9 SW 19 27 1016.7 - 5.6 Rain - - - - - -
29/04:45pm 6.5 SW 19 29 1016.5 - 5.4 - - - - - - -
29/04:30pm 7.6 WSW 18 26 1016.2 - 5.2 - - - - - - -
29/04:04pm 7.9 SW 22 35 1015.9 - 5.2 - - - - - - -
29/04:00pm 7.9 SW 21 29 1015.9 - 5.2 - - - - - - -
29/03:30pm 8.4 WSW 23 33 1015.3 - 5.2 - - - - - - -
29/03:00pm 8.2 SW 20 31 1014.9 - 5.2 - - - - - - -
29/02:38pm 8.7 SW 21 31 1014.8 - 5.2 - - - - - - -
29/02:30pm 8.4 SW 22 31 1014.7 - 5.2 - - - - - - -
29/02:00pm 7.8 WSW 24 34 1014.3 - 5.2 - - - - - - -
29/01:32pm 7.8 WSW 21 31 1014.2 - 5.2 - - - - - - -
29/01:30pm 7.7 WSW 22 31 1014.2 - 5.2 - - - - - - -
29/01:00pm 8.0 WSW 21 32 1013.7 - 5.2 - - - - - - -
29/12:33pm 8.1 WSW 18 28 1013.6 - 5.2 - - - - - - -
29/12:30pm 7.8 WSW 17 26 1013.6 - 5.2 - - - - - - -
29/12:00pm 7.3 WSW 23 36 1013.7 - 5.2 Rain - - - - - -
29/11:34am 8.6 WSW 21 31 1013.2 - 4.0 - - - - - - -
29/11:30am 8.5 WSW 23 31 1013.2 - 4.0 - - - - - - -
29/11:00am 8.1 W 23 34 1013.3 - 3.6 Rain - - - - - -
29/10:55am 8.7 W 23 34 1013.2 - 3.2 - - - - - - -
29/10:30am 8.0 W 25 32 1013.2 - 3.2 - - - - - - -
29/10:00am 7.9 WSW 21 31 1013.1 - 2.0 Rain - - - - - -
29/09:52am 8.3 WSW 19 30 1013.0 - 1.8 - - - - - - -
29/09:37am 8.3 WNW 28 37 1012.7 - 1.0 - - - - - - -
29/09:30am 8.4 NW 31 43 1012.2 - 0.8 - - - - - - -
29/09:26am 9.7 NW 31 43 1011.8 - 0.4 - - - - - - -
29/09:00am 9.3 NW 31 37 1012.0 - 11.4 Rain - - - - - -
29/08:30am 9.3 NW 28 34 1012.5 - 10.8 - - - - - - -
29/08:02am 9.8 NW 28 38 1012.6 - 9.8 - - - - - - -
29/08:00am 10.0 NW 29 35 1012.6 - 9.8 - - - - - - -
29/07:49am 10.6 NW 27 37 1012.7 - 9.8 - - - - - - -
29/07:30am 10.3 NW 27 34 1012.9 - 9.8 - - - - - - -
29/07:00am 10.3 NW 25 32 1013.4 - 9.8 - - - - - - -
29/06:30am 9.9 WNW 26 32 1013.6 - 9.8 - - - - - - -
29/06:00am 10.1 NW 25 31 1013.7 - 9.8 - - - - - - -
29/05:30am 10.0 WNW 27 32 1013.9 - 9.8 - - - - - - -
29/05:00am 10.0 WNW 27 31 1014.1 - 9.8 - - - - - - -
29/04:30am 9.4 WNW 23 30 1014.5 - 9.8 - - - - - - -
29/04:00am 9.1 WNW 25 32 1014.9 - 9.8 Recent precip. - - - - - -
29/03:53am 9.5 WNW 21 32 1014.9 - 9.8 - - - - - - -
29/03:30am 9.4 WNW 23 29 1015.2 - 9.8 - - - - - - -
29/03:00am 9.8 WNW 19 23 1015.8 - 9.6 - - - - - - -
29/02:30am 9.6 WNW 17 23 1016.1 - 9.6 - - - - - - -
29/02:00am 9.7 WNW 18 22 1016.5 - 9.6 - - - - - - -
29/01:30am 9.6 WNW 16 21 1016.7 - 9.6 - - - - - - -
29/01:00am 9.3 WNW 17 20 1017.1 - 9.6 Recent precip. - - - - - -
29/12:30am 10.0 W 15 19 1017.3 - 9.6 - - - - - - -
29/12:00am 10.1 WNW 15 20 1017.7 - 9.4 - - - - - - -
 
Date/Time
EST
Temp
°C
Wind Pressure Rain since
9am
mm
Weather Cloud Vis
km
Sea
Height
m
Swell
Dir  Spd
kts
Gust
kts
hPa Trend Height
m
Period
s
Dir
28/11:30pm 9.9 NW 12 15 1017.8 - 9.4 - - - - - - -
28/11:00pm 10.1 WNW 12 15 1018.1 - 9.4 - - - - - - -
28/10:30pm 9.9 WNW 15 19 1018.0 - 9.4 - - - - - - -
28/10:00pm 9.9 WNW 12 16 1018.3 - 9.4 - - - - - - -
28/09:30pm 9.8 WNW 14 17 1018.4 - 9.4 - - - - - - -
28/09:00pm 10.0 W 13 16 1018.7 - 9.4 Recent precip. - - - - - -
28/08:30pm 10.0 W 12 15 1018.6 - 9.2 - - - - - - -
28/08:00pm 10.0 WNW 12 16 1018.8 - 5.6 Rain - - - - - -
28/07:30pm 10.3 WNW 12 18 1018.7 - 3.8 - - - - - - -
28/07:00pm 10.2 NW 13 16 1018.7 - 2.8 Recent precip. - - - - - -
28/06:30pm 10.3 NW 12 15 1018.5 - 2.8 - - - - - - -
28/06:00pm 10.2 WNW 14 19 1018.6 - 2.4 - - - - - - -
28/05:30pm 9.2 NNW 6 9 1018.6 - 2.4 - - - - - - -
28/05:00pm 10.0 NW 8 12 1018.8 - 2.4 - - - - - - -
28/04:30pm 9.8 N 8 9 1018.5 - 2.4 - - - - - - -
28/04:00pm 10.3 N 8 11 1018.6 - 2.4 - - - - - - -
28/03:30pm 10.4 N 9 12 1018.5 - 2.4 - - - - - - -
28/03:00pm 10.2 NNW 11 15 1018.6 - 2.4 Recent precip. - - - - - -
28/02:30pm 9.8 NW 14 17 1018.6 - 2.2 - - - - - - -
28/02:00pm 9.8 NW 12 15 1018.9 - 1.2 Rain - - - - - -
28/01:30pm 10.4 W 9 13 1018.9 - 0.0 - - - - - - -
28/01:00pm 10.9 WNW 13 19 1019.2 - 0.0 - - - - - - -
28/12:30pm 11.5 NNW 15 19 1019.2 - 0.0 - - - - - - -
28/12:00pm 12.2 NNW 15 19 1019.5 - 0.0 - - - - - - -
28/11:30am 12.1 NNW 13 17 1019.6 - 0.0 - - - - - - -
28/11:00am 11.4 NNW 10 17 1019.9 - 0.0 - - - - - - -
28/10:30am 11.4 NNW 11 15 1020.1 - 0.0 - - - - - - -
28/10:00am 10.0 NNW 9 13 1020.3 - 0.0 - - - - - - -
28/09:30am 8.9 NNW 9 12 1020.2 - 0.0 - - - - - - -
28/09:00am 8.5 N 11 14 1020.4 - 4.8 - - - - - - -
28/08:30am 8.3 NNW 12 15 1020.1 - 4.8 - - - - - - -
28/08:00am 7.7 N 11 16 1019.8 - 4.8 - - - - - - -
28/07:30am 7.4 N 11 14 1019.7 - 4.8 - - - - - - -
28/07:00am 7.4 N 12 14 1019.7 - 4.8 - - - - - - -
28/06:30am 7.9 N 13 18 1019.5 - 4.8 - - - - - - -
28/06:00am 7.8 N 13 19 1019.5 - 4.8 Recent precip. - - - - - -
28/05:30am 7.7 N 13 16 1019.5 - 4.6 - - - - - - -
28/05:00am 8.1 N 13 18 1019.7 - 4.6 Recent precip. - - - - - -
28/04:30am 8.0 N 13 17 1019.6 - 4.6 - - - - - - -
28/04:00am 7.9 N 10 14 1019.8 - 4.4 - - - - - - -
28/03:30am 7.8 N 11 15 1019.7 - 4.4 - - - - - - -
28/03:00am 7.8 N 12 16 1019.8 - 4.4 - - - - - - -
28/02:30am 7.9 N 12 19 1019.7 - 4.4 - - - - - - -
28/02:00am 7.9 N 12 16 1019.8 - 4.4 Rain - - - - - -
28/01:30am 7.9 N 11 14 1019.6 - 4.0 - - - - - - -
28/01:00am 7.8 N 9 14 1019.9 - 3.0 Rain - - - - - -
28/12:30am 7.6 N 9 12 1019.9 - 2.6 - - - - - - -
28/12:00am 7.6 N 11 16 1020.2 - 2.6 Rain - - - - - -
 
Date/Time
EST
Temp
°C
Wind Pressure Rain since
9am
mm
Weather Cloud Vis
km
Sea
Height
m
Swell
Dir  Spd
kts
Gust
kts
hPa Trend Height
m
Period
s
Dir
27/11:30pm 7.5 N 11 15 1020.2 - 2.4 - - - - - - -
27/11:00pm 7.4 N 12 16 1020.4 - 2.4 - - - - - - -
27/10:30pm 7.3 N 12 15 1020.4 - 2.4 - - - - - - -
27/10:00pm 7.3 N 12 15 1020.5 - 2.4 Recent precip. - - - - - -
27/09:30pm 7.6 N 11 14 1020.5 - 2.4 - - - - - - -
27/09:00pm 7.9 N 12 16 1020.7 - 2.2 Recent precip. - - - - - -
27/08:30pm 7.8 N 9 14 1020.8 - 2.0 - - - - - - -
27/08:00pm 7.9 N 11 15 1020.9 - 1.4 Recent precip. - - - - - -
27/07:30pm 7.5 NNE 8 12 1020.8 - 1.2 - - - - - - -
27/07:00pm 7.8 N 10 15 1020.8 - 0.4 - - - - - - -
27/06:30pm 7.6 N 8 15 1020.7 - 0.4 - - - - - - -
27/06:00pm 7.8 NNE 9 12 1020.7 - 0.4 Recent precip. - - - - - -
27/05:30pm 7.9 N 10 13 1020.6 - 0.4 - - - - - - -
27/05:00pm 8.1 N 10 13 1020.8 - 0.2 Recent precip. - - - - - -
27/04:30pm 8.1 N 9 11 1020.7 - 0.2 - - - - - - -
27/04:00pm 8.9 NNW 10 13 1020.9 - 0.0 - - - - - - -
27/03:30pm 9.4 NW 18 25 1020.7 - 0.0 - - - - - - -
27/03:00pm 10.1 N 11 16 1020.8 - 0.0 - - - - - - -
27/02:30pm 10.6 N 13 17 1020.7 - 0.0 - - - - - - -
27/02:00pm 10.6 NNW 14 19 1021.0 - 0.0 - - - - - - -
27/01:30pm 11.8 NNW 14 20 1021.2 - 0.0 - - - - - - -
27/01:00pm 11.1 N 11 15 1021.4 - 0.0 - - - - - - -
27/12:30pm 10.7 N 13 18 1021.5 - 0.0 - - - - - - -
27/12:00pm 11.4 N 9 14 1021.8 - 0.0 - - - - - - -
27/11:30am 10.7 NNW 9 12 1022.4 - 0.0 - - - - - - -
27/11:00am 9.9 N 11 15 1022.7 - 0.0 - - - - - - -
27/10:30am 9.5 N 9 14 1023.0 - 0.0 - - - - - - -
27/10:00am 8.9 NNE 9 12 1023.1 - 0.0 - - - - - - -
27/09:30am 8.4 NNE 9 11 1023.1 - 0.0 - - - - - - -
27/09:00am 7.9 NNE 9 13 1023.2 - 0.0 - - - - - - -
27/08:30am 7.7 NNE 10 13 1023.0 - 0.0 - - - - - - -
27/08:00am 7.6 NNE 10 12 1022.9 - 0.0 - - - - - - -
27/07:30am 7.5 NNE 9 12 1022.8 - 0.0 - - - - - - -
27/07:00am 7.7 N 10 13 1023.0 - 0.0 - - - - - - -
27/06:30am 7.7 N 9 12 1022.9 - 0.0 - - - - - - -
27/06:00am 7.6 N 10 13 1023.1 - 0.0 - - - - - - -
27/05:30am 7.8 N 10 13 1022.9 - 0.0 - - - - - - -
27/05:00am 7.7 NNE 9 11 1023.0 - 0.0 - - - - - - -
27/04:30am 7.5 N 9 11 1023.0 - 0.0 - - - - - - -
27/04:00am 7.7 N 9 11 1023.2 - 0.0 - - - - - - -
27/03:30am 7.7 N 9 12 1023.2 - 0.0 - - - - - - -
27/03:00am 7.7 N 9 12 1023.4 - 0.0 - - - - - - -
27/02:30am 7.5 N 9 11 1023.3 - 0.0 - - - - - - -
27/02:00am 7.5 N 9 11 1023.4 - 0.0 - - - - - - -
27/01:30am 7.5 N 9 13 1023.4 - 0.0 - - - - - - -
27/01:00am 7.5 NNE 9 13 1023.3 - 0.0 - - - - - - -
27/12:30am 7.6 N 9 13 1023.4 - 0.0 - - - - - - -

Other Formats:

Comma delimited format used in spreadsheet applications
http://www.bom.gov.au/fwo/IDT60701/IDT60701.95961.axf

JavaScript Object Notation format (JSON) in row-major order
http://www.bom.gov.au/fwo/IDT60701/IDT60701.95961.json